sensor_id;sensor_type;location;lat;lon;timestamp;temperature;humidity
11095;DHT22;5601;44.490;11.400;2022-10-18T06:26:27;18.10;99.90
11095;DHT22;5601;44.490;11.400;2022-10-18T06:28:55;17.60;99.90
11095;DHT22;5601;44.490;11.400;2022-10-18T06:31:21;17.30;99.90
11095;DHT22;5601;44.490;11.400;2022-10-18T06:33:48;17.20;99.90
11095;DHT22;5601;44.490;11.400;2022-10-18T06:36:16;17.20;99.90
11095;DHT22;5601;44.490;11.400;2022-10-18T06:38:43;17.20;99.90
11095;DHT22;5601;44.490;11.400;2022-10-18T06:41:11;17.30;99.90
11095;DHT22;5601;44.490;11.400;2022-10-18T06:43:39;17.30;99.90
11095;DHT22;5601;44.490;11.400;2022-10-18T06:46:06;17.40;99.90
11095;DHT22;5601;44.490;11.400;2022-10-18T06:48:34;17.50;99.90
11095;DHT22;5601;44.490;11.400;2022-10-18T06:51:02;17.60;99.90
11095;DHT22;5601;44.490;11.400;2022-10-18T06:53:33;17.70;99.90
11095;DHT22;5601;44.490;11.400;2022-10-18T06:56:01;17.80;99.90
11095;DHT22;5601;44.490;11.400;2022-10-18T06:58:29;17.90;99.90
11095;DHT22;5601;44.490;11.400;2022-10-18T07:00:57;18.00;99.90
11095;DHT22;5601;44.490;11.400;2022-10-18T07:03:25;18.00;99.90
11095;DHT22;5601;44.490;11.400;2022-10-18T07:05:52;18.10;99.90
11095;DHT22;5601;44.490;11.400;2022-10-18T07:08:20;18.20;99.90
11095;DHT22;5601;44.490;11.400;2022-10-18T07:10:50;18.30;99.90
11095;DHT22;5601;44.490;11.400;2022-10-18T07:13:18;18.30;99.90
11095;DHT22;5601;44.490;11.400;2022-10-18T07:15:45;18.40;99.90
11095;DHT22;5601;44.490;11.400;2022-10-18T07:18:14;18.40;99.90
11095;DHT22;5601;44.490;11.400;2022-10-18T07:20:41;18.50;99.90
11095;DHT22;5601;44.490;11.400;2022-10-18T07:23:08;18.60;99.90
11095;DHT22;5601;44.490;11.400;2022-10-18T07:25:36;18.70;99.90
11095;DHT22;5601;44.490;11.400;2022-10-18T07:28:03;18.80;99.90
11095;DHT22;5601;44.490;11.400;2022-10-18T07:30:30;18.90;99.90
11095;DHT22;5601;44.490;11.400;2022-10-18T07:32:57;19.00;99.90
11095;DHT22;5601;44.490;11.400;2022-10-18T07:35:26;19.10;99.90
11095;DHT22;5601;44.490;11.400;2022-10-18T07:37:53;19.10;99.90
11095;DHT22;5601;44.490;11.400;2022-10-18T07:40:20;19.20;99.90
11095;DHT22;5601;44.490;11.400;2022-10-18T07:42:48;19.40;99.90
11095;DHT22;5601;44.490;11.400;2022-10-18T07:45:15;19.40;99.90
11095;DHT22;5601;44.490;11.400;2022-10-18T07:47:41;19.50;99.90
11095;DHT22;5601;44.490;11.400;2022-10-18T07:50:08;19.60;99.90
11095;DHT22;5601;44.490;11.400;2022-10-18T07:52:37;19.70;99.90
11095;DHT22;5601;44.490;11.400;2022-10-18T07:55:05;19.70;99.90
11095;DHT22;5601;44.490;11.400;2022-10-18T07:57:32;19.80;99.90
11095;DHT22;5601;44.490;11.400;2022-10-18T08:00:09;20.00;99.90
11095;DHT22;5601;44.490;11.400;2022-10-18T08:02:36;20.00;99.90
11095;DHT22;5601;44.490;11.400;2022-10-18T08:05:04;19.90;99.90
11095;DHT22;5601;44.490;11.400;2022-10-18T08:07:31;19.90;99.90
11095;DHT22;5601;44.490;11.400;2022-10-18T08:09:59;20.00;99.90
11095;DHT22;5601;44.490;11.400;2022-10-18T08:12:26;20.10;99.90
11095;DHT22;5601;44.490;11.400;2022-10-18T08:14:54;20.20;99.90
11095;DHT22;5601;44.490;11.400;2022-10-18T08:17:21;20.30;99.90
11095;DHT22;5601;44.490;11.400;2022-10-18T08:19:47;20.40;99.90
11095;DHT22;5601;44.490;11.400;2022-10-18T08:22:15;20.40;99.90
11095;DHT22;5601;44.490;11.400;2022-10-18T08:24:42;20.30;99.90
11095;DHT22;5601;44.490;11.400;2022-10-18T08:27:10;20.20;99.90
11095;DHT22;5601;44.490;11.400;2022-10-18T08:29:37;20.30;99.90
11095;DHT22;5601;44.490;11.400;2022-10-18T08:32:04;20.40;99.90
11095;DHT22;5601;44.490;11.400;2022-10-18T08:34:32;20.50;99.90
11095;DHT22;5601;44.490;11.400;2022-10-18T08:36:59;20.60;99.90
11095;DHT22;5601;44.490;11.400;2022-10-18T08:39:26;20.70;99.90
11095;DHT22;5601;44.490;11.400;2022-10-18T08:44:49;20.50;99.90
11095;DHT22;5601;44.490;11.400;2022-10-18T08:47:17;20.50;99.90
11095;DHT22;5601;44.490;11.400;2022-10-18T08:49:45;20.60;99.90
11095;DHT22;5601;44.490;11.400;2022-10-18T08:52:15;20.80;99.90
11095;DHT22;5601;44.490;11.400;2022-10-18T08:54:48;20.80;99.90
11095;DHT22;5601;44.490;11.400;2022-10-18T08:57:17;20.70;99.90
11095;DHT22;5601;44.490;11.400;2022-10-18T08:59:45;20.60;99.90
11095;DHT22;5601;44.490;11.400;2022-10-18T09:02:17;20.70;99.90
11095;DHT22;5601;44.490;11.400;2022-10-18T09:04:47;20.80;99.90
11095;DHT22;5601;44.490;11.400;2022-10-18T09:09:58;21.20;99.90
11095;DHT22;5601;44.490;11.400;2022-10-18T09:12:33;21.20;99.90
11095;DHT22;5601;44.490;11.400;2022-10-18T09:15:11;21.20;99.90
11095;DHT22;5601;44.490;11.400;2022-10-18T09:17:43;21.30;99.90
11095;DHT22;5601;44.490;11.400;2022-10-18T09:20:19;21.30;99.90
11095;DHT22;5601;44.490;11.400;2022-10-18T09:22:50;21.40;99.90
11095;DHT22;5601;44.490;11.400;2022-10-18T09:25:19;21.40;99.90
11095;DHT22;5601;44.490;11.400;2022-10-18T09:27:50;21.30;99.90
11095;DHT22;5601;44.490;11.400;2022-10-18T09:30:19;21.40;99.90
11095;DHT22;5601;44.490;11.400;2022-10-18T09:32:52;21.40;99.90
11095;DHT22;5601;44.490;11.400;2022-10-18T09:35:23;21.20;99.90
11095;DHT22;5601;44.490;11.400;2022-10-18T09:37:51;21.20;99.90
11095;DHT22;5601;44.490;11.400;2022-10-18T09:40:20;21.40;99.90
11095;DHT22;5601;44.490;11.400;2022-10-18T09:42:51;21.50;99.90
11095;DHT22;5601;44.490;11.400;2022-10-18T09:45:21;21.60;99.90
11095;DHT22;5601;44.490;11.400;2022-10-18T09:47:53;21.70;99.90
11095;DHT22;5601;44.490;11.400;2022-10-18T09:50:22;21.90;99.90
11095;DHT22;5601;44.490;11.400;2022-10-18T09:52:52;22.10;99.90
11095;DHT22;5601;44.490;11.400;2022-10-18T09:55:22;22.00;99.90
11095;DHT22;5601;44.490;11.400;2022-10-18T09:57:51;21.90;99.90
11095;DHT22;5601;44.490;11.400;2022-10-18T10:00:20;21.90;99.90
11095;DHT22;5601;44.490;11.400;2022-10-18T10:02:48;22.20;99.90
11095;DHT22;5601;44.490;11.400;2022-10-18T10:05:17;22.20;99.90
11095;DHT22;5601;44.490;11.400;2022-10-18T10:07:45;22.30;99.90
11095;DHT22;5601;44.490;11.400;2022-10-18T10:10:13;22.50;99.90
11095;DHT22;5601;44.490;11.400;2022-10-18T10:12:42;22.50;99.90
11095;DHT22;5601;44.490;11.400;2022-10-18T10:15:17;22.60;99.90
11095;DHT22;5601;44.490;11.400;2022-10-18T10:17:44;22.70;99.90
11095;DHT22;5601;44.490;11.400;2022-10-18T10:20:21;22.70;99.90
11095;DHT22;5601;44.490;11.400;2022-10-18T10:22:49;22.70;99.90
11095;DHT22;5601;44.490;11.400;2022-10-18T10:25:21;22.80;99.90
11095;DHT22;5601;44.490;11.400;2022-10-18T10:27:49;22.80;99.90
11095;DHT22;5601;44.490;11.400;2022-10-18T10:30:23;23.00;99.90
11095;DHT22;5601;44.490;11.400;2022-10-18T10:32:51;23.00;99.90
11095;DHT22;5601;44.490;11.400;2022-10-18T10:35:21;22.90;99.90
11095;DHT22;5601;44.490;11.400;2022-10-18T10:37:49;22.80;99.90
11095;DHT22;5601;44.490;11.400;2022-10-18T10:40:18;22.90;99.90
11095;DHT22;5601;44.490;11.400;2022-10-18T10:45:36;23.00;99.90
11095;DHT22;5601;44.490;11.400;2022-10-18T10:48:05;22.80;99.90
11095;DHT22;5601;44.490;11.400;2022-10-18T10:50:46;22.70;99.90
11095;DHT22;5601;44.490;11.400;2022-10-18T10:53:20;22.60;99.90
11095;DHT22;5601;44.490;11.400;2022-10-18T10:55:51;22.80;99.90
11095;DHT22;5601;44.490;11.400;2022-10-18T10:58:19;22.90;99.90
11095;DHT22;5601;44.490;11.400;2022-10-18T11:00:47;22.80;99.90
11095;DHT22;5601;44.490;11.400;2022-10-18T11:03:14;22.90;99.90
11095;DHT22;5601;44.490;11.400;2022-10-18T11:05:45;22.80;99.90
11095;DHT22;5601;44.490;11.400;2022-10-18T11:08:14;22.90;99.90
11095;DHT22;5601;44.490;11.400;2022-10-18T11:10:44;23.00;99.90
11095;DHT22;5601;44.490;11.400;2022-10-18T11:13:17;23.10;99.90
11095;DHT22;5601;44.490;11.400;2022-10-18T11:15:49;23.20;99.90
11095;DHT22;5601;44.490;11.400;2022-10-18T11:18:20;23.20;99.90
11095;DHT22;5601;44.490;11.400;2022-10-18T11:20:50;23.20;99.90
11095;DHT22;5601;44.490;11.400;2022-10-18T11:23:19;23.20;99.90
11095;DHT22;5601;44.490;11.400;2022-10-18T11:25:55;23.30;99.90
11095;DHT22;5601;44.490;11.400;2022-10-18T11:28:28;23.40;99.90
11095;DHT22;5601;44.490;11.400;2022-10-18T11:31:11;23.40;99.90
11095;DHT22;5601;44.490;11.400;2022-10-18T11:33:40;23.70;99.90
11095;DHT22;5601;44.490;11.400;2022-10-18T11:36:14;23.70;99.90
11095;DHT22;5601;44.490;11.400;2022-10-18T11:38:44;23.70;99.90
11095;DHT22;5601;44.490;11.400;2022-10-18T11:41:18;23.70;99.90
11095;DHT22;5601;44.490;11.400;2022-10-18T11:43:49;23.70;99.90
11095;DHT22;5601;44.490;11.400;2022-10-18T11:46:18;23.50;99.90
11095;DHT22;5601;44.490;11.400;2022-10-18T11:48:52;23.70;99.90
11095;DHT22;5601;44.490;11.400;2022-10-18T11:51:24;23.60;99.90
11095;DHT22;5601;44.490;11.400;2022-10-18T11:53:57;23.70;99.90
11095;DHT22;5601;44.490;11.400;2022-10-18T11:56:27;23.70;99.90
11095;DHT22;5601;44.490;11.400;2022-10-18T11:59:03;23.70;99.90
11095;DHT22;5601;44.490;11.400;2022-10-18T12:01:36;23.70;99.90
11095;DHT22;5601;44.490;11.400;2022-10-18T12:04:07;23.60;99.90
11095;DHT22;5601;44.490;11.400;2022-10-18T12:06:37;23.60;99.90
11095;DHT22;5601;44.490;11.400;2022-10-18T12:09:07;23.60;99.90
11095;DHT22;5601;44.490;11.400;2022-10-18T12:11:38;23.70;99.90
11095;DHT22;5601;44.490;11.400;2022-10-18T12:14:15;23.90;99.90
11095;DHT22;5601;44.490;11.400;2022-10-18T12:16:45;23.90;99.90
11095;DHT22;5601;44.490;11.400;2022-10-18T12:19:14;23.90;99.90
11095;DHT22;5601;44.490;11.400;2022-10-18T12:21:46;24.00;99.90
11095;DHT22;5601;44.490;11.400;2022-10-18T12:24:13;24.10;99.90
11095;DHT22;5601;44.490;11.400;2022-10-18T13:21:44;24.20;99.90
11095;DHT22;5601;44.490;11.400;2022-10-18T13:24:17;24.20;99.90
11095;DHT22;5601;44.490;11.400;2022-10-18T13:26:51;24.20;99.90
11095;DHT22;5601;44.490;11.400;2022-10-18T13:29:34;24.20;99.90
11095;DHT22;5601;44.490;11.400;2022-10-18T13:32:05;24.20;99.90
11095;DHT22;5601;44.490;11.400;2022-10-18T13:34:34;24.30;99.90
11095;DHT22;5601;44.490;11.400;2022-10-18T13:37:05;24.40;99.90
11095;DHT22;5601;44.490;11.400;2022-10-18T13:39:44;24.40;99.90
11095;DHT22;5601;44.490;11.400;2022-10-18T13:42:28;24.20;99.90
11095;DHT22;5601;44.490;11.400;2022-10-18T13:47:41;24.20;99.90
11095;DHT22;5601;44.490;11.400;2022-10-18T13:50:25;24.20;99.90
11095;DHT22;5601;44.490;11.400;2022-10-18T13:55:56;24.20;99.90
11095;DHT22;5601;44.490;11.400;2022-10-18T13:58:28;24.30;99.90
11095;DHT22;5601;44.490;11.400;2022-10-18T14:01:03;24.40;99.90
11095;DHT22;5601;44.490;11.400;2022-10-18T14:03:42;24.30;99.90
11095;DHT22;5601;44.490;11.400;2022-10-18T14:06:16;24.20;99.90
11095;DHT22;5601;44.490;11.400;2022-10-18T14:08:45;24.20;99.90
11095;DHT22;5601;44.490;11.400;2022-10-18T14:11:18;24.20;99.90
11095;DHT22;5601;44.490;11.400;2022-10-18T14:13:50;24.10;99.90
11095;DHT22;5601;44.490;11.400;2022-10-18T14:16:25;24.20;99.90
11095;DHT22;5601;44.490;11.400;2022-10-18T14:18:54;24.20;99.90
11095;DHT22;5601;44.490;11.400;2022-10-18T14:21:23;24.20;99.90
11095;DHT22;5601;44.490;11.400;2022-10-18T14:23:54;24.20;99.90
11095;DHT22;5601;44.490;11.400;2022-10-18T14:26:23;24.20;99.90
11095;DHT22;5601;44.490;11.400;2022-10-18T14:29:03;24.20;99.90
11095;DHT22;5601;44.490;11.400;2022-10-18T14:31:30;24.30;99.90
11095;DHT22;5601;44.490;11.400;2022-10-18T14:33:57;24.30;99.90
11095;DHT22;5601;44.490;11.400;2022-10-18T14:36:25;24.30;99.90
11095;DHT22;5601;44.490;11.400;2022-10-18T14:38:54;24.30;99.90
11095;DHT22;5601;44.490;11.400;2022-10-18T14:41:23;24.20;99.90
11095;DHT22;5601;44.490;11.400;2022-10-18T14:43:51;24.20;99.90
11095;DHT22;5601;44.490;11.400;2022-10-18T14:46:20;24.20;99.90
11095;DHT22;5601;44.490;11.400;2022-10-18T14:48:51;24.20;99.90
11095;DHT22;5601;44.490;11.400;2022-10-18T14:51:18;24.20;99.90
11095;DHT22;5601;44.490;11.400;2022-10-18T14:53:45;24.20;99.90
11095;DHT22;5601;44.490;11.400;2022-10-18T14:56:18;24.10;99.90
11095;DHT22;5601;44.490;11.400;2022-10-18T14:58:47;24.10;99.90
11095;DHT22;5601;44.490;11.400;2022-10-18T15:01:15;24.00;99.90
11095;DHT22;5601;44.490;11.400;2022-10-18T15:03:42;24.00;99.90
11095;DHT22;5601;44.490;11.400;2022-10-18T15:06:11;24.00;99.90
11095;DHT22;5601;44.490;11.400;2022-10-18T15:08:41;24.00;99.90
11095;DHT22;5601;44.490;11.400;2022-10-18T15:11:09;23.90;99.90
11095;DHT22;5601;44.490;11.400;2022-10-18T15:13:37;23.90;99.90
11095;DHT22;5601;44.490;11.400;2022-10-18T15:16:11;23.90;99.90
11095;DHT22;5601;44.490;11.400;2022-10-18T15:18:41;23.80;99.90
11095;DHT22;5601;44.490;11.400;2022-10-18T15:21:09;23.80;99.90
11095;DHT22;5601;44.490;11.400;2022-10-18T15:23:36;23.70;99.90
11095;DHT22;5601;44.490;11.400;2022-10-18T15:26:03;23.70;99.90
11095;DHT22;5601;44.490;11.400;2022-10-18T15:28:31;23.60;99.90
11095;DHT22;5601;44.490;11.400;2022-10-18T15:31:00;23.60;99.90
11095;DHT22;5601;44.490;11.400;2022-10-18T15:33:29;23.50;99.90
11095;DHT22;5601;44.490;11.400;2022-10-18T15:36:07;23.50;99.90
11095;DHT22;5601;44.490;11.400;2022-10-18T15:38:34;23.40;99.90
11095;DHT22;5601;44.490;11.400;2022-10-18T15:41:02;23.40;99.90
11095;DHT22;5601;44.490;11.400;2022-10-18T15:43:49;23.30;99.90
11095;DHT22;5601;44.490;11.400;2022-10-18T15:46:27;23.20;99.90
11095;DHT22;5601;44.490;11.400;2022-10-18T15:48:56;23.10;99.90
11095;DHT22;5601;44.490;11.400;2022-10-18T15:51:31;23.00;99.90
11095;DHT22;5601;44.490;11.400;2022-10-18T15:54:03;22.90;99.90
11095;DHT22;5601;44.490;11.400;2022-10-18T15:56:31;22.80;99.90
11095;DHT22;5601;44.490;11.400;2022-10-18T15:58:59;22.70;99.90
11095;DHT22;5601;44.490;11.400;2022-10-18T16:01:32;22.60;99.90
11095;DHT22;5601;44.490;11.400;2022-10-18T16:04:03;22.50;99.90
11095;DHT22;5601;44.490;11.400;2022-10-18T16:06:30;22.40;99.90
11095;DHT22;5601;44.490;11.400;2022-10-18T16:08:59;22.30;99.90
11095;DHT22;5601;44.490;11.400;2022-10-18T16:11:27;22.20;99.90
11095;DHT22;5601;44.490;11.400;2022-10-18T16:13:54;22.10;99.90
11095;DHT22;5601;44.490;11.400;2022-10-18T16:16:22;22.00;99.90
11095;DHT22;5601;44.490;11.400;2022-10-18T16:18:49;21.90;99.90
11095;DHT22;5601;44.490;11.400;2022-10-18T16:21:20;21.70;99.90
11095;DHT22;5601;44.490;11.400;2022-10-18T16:23:47;21.70;99.90
11095;DHT22;5601;44.490;11.400;2022-10-18T16:26:14;21.50;99.90
11095;DHT22;5601;44.490;11.400;2022-10-18T16:28:41;21.40;99.90
11095;DHT22;5601;44.490;11.400;2022-10-18T16:31:09;21.30;99.90
11095;DHT22;5601;44.490;11.400;2022-10-18T16:33:39;21.20;99.90
11095;DHT22;5601;44.490;11.400;2022-10-18T16:36:06;21.10;99.90
11095;DHT22;5601;44.490;11.400;2022-10-18T16:38:36;21.00;99.90
11095;DHT22;5601;44.490;11.400;2022-10-18T16:41:03;21.00;99.90
11095;DHT22;5601;44.490;11.400;2022-10-18T16:43:30;20.90;99.90
11095;DHT22;5601;44.490;11.400;2022-10-18T16:45:57;20.90;99.90
11095;DHT22;5601;44.490;11.400;2022-10-18T16:48:25;20.80;99.90
11095;DHT22;5601;44.490;11.400;2022-10-18T16:50:52;20.70;99.90
11095;DHT22;5601;44.490;11.400;2022-10-18T16:53:20;20.60;99.90
11095;DHT22;5601;44.490;11.400;2022-10-18T16:55:51;20.50;99.90
11095;DHT22;5601;44.490;11.400;2022-10-18T16:58:19;20.40;99.90
11095;DHT22;5601;44.490;11.400;2022-10-18T17:00:47;20.40;99.90
11095;DHT22;5601;44.490;11.400;2022-10-18T17:03:14;20.30;99.90
11095;DHT22;5601;44.490;11.400;2022-10-18T17:05:41;20.20;99.90
11095;DHT22;5601;44.490;11.400;2022-10-18T17:08:12;20.20;99.90
11095;DHT22;5601;44.490;11.400;2022-10-18T17:10:41;20.20;99.90
11095;DHT22;5601;44.490;11.400;2022-10-18T17:13:10;20.20;99.90
11095;DHT22;5601;44.490;11.400;2022-10-18T17:15:36;20.20;99.90
11095;DHT22;5601;44.490;11.400;2022-10-18T17:18:05;20.20;99.90
11095;DHT22;5601;44.490;11.400;2022-10-18T17:20:32;20.20;99.90
11095;DHT22;5601;44.490;11.400;2022-10-18T17:22:59;20.10;99.90
11095;DHT22;5601;44.490;11.400;2022-10-18T17:25:26;20.10;99.90
11095;DHT22;5601;44.490;11.400;2022-10-18T17:27:53;20.00;99.90
11095;DHT22;5601;44.490;11.400;2022-10-18T17:30:21;20.00;99.90
11095;DHT22;5601;44.490;11.400;2022-10-18T17:32:49;20.00;99.90
11095;DHT22;5601;44.490;11.400;2022-10-18T17:35:16;19.90;99.90
11095;DHT22;5601;44.490;11.400;2022-10-18T17:37:45;19.90;99.90
11095;DHT22;5601;44.490;11.400;2022-10-18T17:40:12;19.80;99.90
11095;DHT22;5601;44.490;11.400;2022-10-18T17:42:40;19.80;99.90
11095;DHT22;5601;44.490;11.400;2022-10-18T17:45:07;19.70;99.90
11095;DHT22;5601;44.490;11.400;2022-10-18T17:47:36;19.70;99.90
11095;DHT22;5601;44.490;11.400;2022-10-18T17:50:05;19.70;99.90
11095;DHT22;5601;44.490;11.400;2022-10-18T17:52:32;19.80;99.90
11095;DHT22;5601;44.490;11.400;2022-10-18T17:54:59;19.80;99.90
11095;DHT22;5601;44.490;11.400;2022-10-18T17:57:26;19.90;99.90
11095;DHT22;5601;44.490;11.400;2022-10-18T17:59:53;19.90;99.90
11095;DHT22;5601;44.490;11.400;2022-10-18T18:02:20;19.80;99.90
11095;DHT22;5601;44.490;11.400;2022-10-18T18:04:49;19.80;99.90
11095;DHT22;5601;44.490;11.400;2022-10-18T18:07:16;19.80;99.90
11095;DHT22;5601;44.490;11.400;2022-10-18T18:09:43;19.80;99.90
11095;DHT22;5601;44.490;11.400;2022-10-18T18:12:10;19.70;99.90
11095;DHT22;5601;44.490;11.400;2022-10-18T18:14:37;19.60;99.90
11095;DHT22;5601;44.490;11.400;2022-10-18T18:17:04;19.60;99.90
11095;DHT22;5601;44.490;11.400;2022-10-18T18:19:32;19.60;99.90
11095;DHT22;5601;44.490;11.400;2022-10-18T18:22:00;19.50;99.90
11095;DHT22;5601;44.490;11.400;2022-10-18T18:24:29;19.40;99.90
11095;DHT22;5601;44.490;11.400;2022-10-18T18:26:56;19.30;99.90
11095;DHT22;5601;44.490;11.400;2022-10-18T18:29:24;19.30;99.90
11095;DHT22;5601;44.490;11.400;2022-10-18T18:31:52;19.20;99.90
11095;DHT22;5601;44.490;11.400;2022-10-18T18:34:19;19.20;99.90
11095;DHT22;5601;44.490;11.400;2022-10-18T18:36:49;19.10;99.90
11095;DHT22;5601;44.490;11.400;2022-10-18T18:39:18;19.10;99.90
11095;DHT22;5601;44.490;11.400;2022-10-18T18:41:46;19.10;99.90
11095;DHT22;5601;44.490;11.400;2022-10-18T18:44:14;19.10;99.90
11095;DHT22;5601;44.490;11.400;2022-10-18T18:46:43;19.10;99.90
11095;DHT22;5601;44.490;11.400;2022-10-18T18:49:10;19.10;99.90
11095;DHT22;5601;44.490;11.400;2022-10-18T18:51:38;19.10;99.90
11095;DHT22;5601;44.490;11.400;2022-10-18T18:54:05;19.00;99.90
11095;DHT22;5601;44.490;11.400;2022-10-18T18:56:35;19.00;99.90
11095;DHT22;5601;44.490;11.400;2022-10-18T18:59:02;18.90;99.90
11095;DHT22;5601;44.490;11.400;2022-10-18T19:01:30;18.90;99.90
11095;DHT22;5601;44.490;11.400;2022-10-18T19:03:58;18.90;99.90
11095;DHT22;5601;44.490;11.400;2022-10-18T19:06:26;18.90;99.90
11095;DHT22;5601;44.490;11.400;2022-10-18T19:08:54;18.90;99.90
11095;DHT22;5601;44.490;11.400;2022-10-18T19:11:25;18.90;99.90
11095;DHT22;5601;44.490;11.400;2022-10-18T19:13:55;18.80;99.90
11095;DHT22;5601;44.490;11.400;2022-10-18T19:16:26;18.80;99.90
11095;DHT22;5601;44.490;11.400;2022-10-18T19:18:56;18.80;99.90
11095;DHT22;5601;44.490;11.400;2022-10-18T19:21:25;18.80;99.90
11095;DHT22;5601;44.490;11.400;2022-10-18T19:23:52;18.80;99.90
11095;DHT22;5601;44.490;11.400;2022-10-18T19:26:24;18.80;99.90
11095;DHT22;5601;44.490;11.400;2022-10-18T19:28:52;18.80;99.90
11095;DHT22;5601;44.490;11.400;2022-10-18T19:31:21;18.70;99.90
11095;DHT22;5601;44.490;11.400;2022-10-18T19:33:48;18.70;99.90
11095;DHT22;5601;44.490;11.400;2022-10-18T19:36:15;18.70;99.90
11095;DHT22;5601;44.490;11.400;2022-10-18T19:38:43;18.70;99.90
11095;DHT22;5601;44.490;11.400;2022-10-18T19:41:10;18.60;99.90
11095;DHT22;5601;44.490;11.400;2022-10-18T19:43:38;18.70;99.90
11095;DHT22;5601;44.490;11.400;2022-10-18T19:46:05;18.70;99.90
11095;DHT22;5601;44.490;11.400;2022-10-18T19:48:34;18.70;99.90
11095;DHT22;5601;44.490;11.400;2022-10-18T19:51:02;18.60;99.90
11095;DHT22;5601;44.490;11.400;2022-10-18T19:53:30;18.60;99.90
11095;DHT22;5601;44.490;11.400;2022-10-18T19:55:57;18.60;99.90
11095;DHT22;5601;44.490;11.400;2022-10-18T19:58:26;18.50;99.90
11095;DHT22;5601;44.490;11.400;2022-10-18T20:00:54;18.50;99.90
11095;DHT22;5601;44.490;11.400;2022-10-18T20:03:22;18.40;99.90
11095;DHT22;5601;44.490;11.400;2022-10-18T20:05:54;18.40;99.90
11095;DHT22;5601;44.490;11.400;2022-10-18T20:08:22;18.40;99.90
11095;DHT22;5601;44.490;11.400;2022-10-18T20:10:50;18.30;99.90
11095;DHT22;5601;44.490;11.400;2022-10-18T20:13:18;18.30;99.90
11095;DHT22;5601;44.490;11.400;2022-10-18T20:15:46;18.30;99.90
11095;DHT22;5601;44.490;11.400;2022-10-18T20:18:13;18.30;99.90
11095;DHT22;5601;44.490;11.400;2022-10-18T20:20:41;18.30;99.90
11095;DHT22;5601;44.490;11.400;2022-10-18T20:23:09;18.30;99.90
11095;DHT22;5601;44.490;11.400;2022-10-18T20:25:37;18.20;99.90
11095;DHT22;5601;44.490;11.400;2022-10-18T20:28:05;18.20;99.90
11095;DHT22;5601;44.490;11.400;2022-10-18T20:30:32;18.20;99.90
11095;DHT22;5601;44.490;11.400;2022-10-18T20:33:00;18.20;99.90
11095;DHT22;5601;44.490;11.400;2022-10-18T20:35:27;18.10;99.90
11095;DHT22;5601;44.490;11.400;2022-10-18T20:37:54;18.10;99.90
11095;DHT22;5601;44.490;11.400;2022-10-18T20:40:23;18.10;99.90
11095;DHT22;5601;44.490;11.400;2022-10-18T20:42:50;18.00;99.90
11095;DHT22;5601;44.490;11.400;2022-10-18T20:45:18;18.00;99.90
11095;DHT22;5601;44.490;11.400;2022-10-18T20:47:46;18.00;99.90
11095;DHT22;5601;44.490;11.400;2022-10-18T20:50:14;18.00;99.90
11095;DHT22;5601;44.490;11.400;2022-10-18T20:52:41;17.90;99.90
11095;DHT22;5601;44.490;11.400;2022-10-18T20:55:09;17.90;99.90
11095;DHT22;5601;44.490;11.400;2022-10-18T20:57:38;17.90;99.90
11095;DHT22;5601;44.490;11.400;2022-10-18T21:00:05;17.90;99.90
11095;DHT22;5601;44.490;11.400;2022-10-18T21:02:34;17.90;99.90
11095;DHT22;5601;44.490;11.400;2022-10-18T21:05:02;17.90;99.90
11095;DHT22;5601;44.490;11.400;2022-10-18T21:07:29;17.90;99.90
11095;DHT22;5601;44.490;11.400;2022-10-18T21:09:56;17.80;99.90
11095;DHT22;5601;44.490;11.400;2022-10-18T21:12:23;17.80;99.90
11095;DHT22;5601;44.490;11.400;2022-10-18T21:14:52;17.80;99.90
11095;DHT22;5601;44.490;11.400;2022-10-18T21:17:20;17.70;99.90
11095;DHT22;5601;44.490;11.400;2022-10-18T21:19:48;17.70;99.90
11095;DHT22;5601;44.490;11.400;2022-10-18T21:22:15;17.70;99.90
11095;DHT22;5601;44.490;11.400;2022-10-18T21:24:43;17.70;99.90
11095;DHT22;5601;44.490;11.400;2022-10-18T21:27:11;17.70;99.90
11095;DHT22;5601;44.490;11.400;2022-10-18T21:29:38;17.60;99.90
11095;DHT22;5601;44.490;11.400;2022-10-18T21:32:07;17.60;99.90
11095;DHT22;5601;44.490;11.400;2022-10-18T21:34:35;17.60;99.90
11095;DHT22;5601;44.490;11.400;2022-10-18T21:37:03;17.50;99.90
11095;DHT22;5601;44.490;11.400;2022-10-18T21:39:30;17.50;99.90
11095;DHT22;5601;44.490;11.400;2022-10-18T21:41:58;17.50;99.90
11095;DHT22;5601;44.490;11.400;2022-10-18T21:44:25;17.50;99.90
11095;DHT22;5601;44.490;11.400;2022-10-18T21:46:53;17.50;99.90
11095;DHT22;5601;44.490;11.400;2022-10-18T21:49:23;17.50;99.90
11095;DHT22;5601;44.490;11.400;2022-10-18T21:51:52;17.50;99.90
11095;DHT22;5601;44.490;11.400;2022-10-18T21:54:20;17.50;99.90
11095;DHT22;5601;44.490;11.400;2022-10-18T21:56:47;17.50;99.90
11095;DHT22;5601;44.490;11.400;2022-10-18T21:59:15;17.50;99.90
11095;DHT22;5601;44.490;11.400;2022-10-18T22:01:44;17.50;99.90
11095;DHT22;5601;44.490;11.400;2022-10-18T22:04:17;17.50;99.90
11095;DHT22;5601;44.490;11.400;2022-10-18T22:06:47;17.50;99.90
11095;DHT22;5601;44.490;11.400;2022-10-18T22:09:14;17.40;99.90
11095;DHT22;5601;44.490;11.400;2022-10-18T22:11:43;17.40;99.90
11095;DHT22;5601;44.490;11.400;2022-10-18T22:14:11;17.40;99.90
11095;DHT22;5601;44.490;11.400;2022-10-18T22:16:39;17.40;99.90
11095;DHT22;5601;44.490;11.400;2022-10-18T22:19:06;17.40;99.90
11095;DHT22;5601;44.490;11.400;2022-10-18T22:21:33;17.40;99.90
11095;DHT22;5601;44.490;11.400;2022-10-18T22:24:04;17.40;99.90
11095;DHT22;5601;44.490;11.400;2022-10-18T22:26:33;17.40;99.90
11095;DHT22;5601;44.490;11.400;2022-10-18T22:29:00;17.40;99.90
11095;DHT22;5601;44.490;11.400;2022-10-18T22:31:28;17.40;99.90
11095;DHT22;5601;44.490;11.400;2022-10-18T22:33:56;17.30;99.90
11095;DHT22;5601;44.490;11.400;2022-10-18T22:36:24;17.30;99.90
11095;DHT22;5601;44.490;11.400;2022-10-18T22:38:51;17.30;99.90
11095;DHT22;5601;44.490;11.400;2022-10-18T22:41:20;17.30;99.90
11095;DHT22;5601;44.490;11.400;2022-10-18T22:43:48;17.30;99.90
11095;DHT22;5601;44.490;11.400;2022-10-18T22:46:16;17.30;99.90
11095;DHT22;5601;44.490;11.400;2022-10-18T22:48:43;17.30;99.90
11095;DHT22;5601;44.490;11.400;2022-10-18T22:51:10;17.30;99.90
11095;DHT22;5601;44.490;11.400;2022-10-18T22:53:38;17.30;99.90
11095;DHT22;5601;44.490;11.400;2022-10-18T22:56:06;17.20;99.90
11095;DHT22;5601;44.490;11.400;2022-10-18T22:58:36;17.20;99.90
11095;DHT22;5601;44.490;11.400;2022-10-18T23:01:04;17.20;99.90
11095;DHT22;5601;44.490;11.400;2022-10-18T23:03:32;17.20;99.90
11095;DHT22;5601;44.490;11.400;2022-10-18T23:06:00;17.10;99.90
11095;DHT22;5601;44.490;11.400;2022-10-18T23:08:28;17.10;99.90
11095;DHT22;5601;44.490;11.400;2022-10-18T23:10:56;17.10;99.90
11095;DHT22;5601;44.490;11.400;2022-10-18T23:13:24;17.10;99.90
11095;DHT22;5601;44.490;11.400;2022-10-18T23:15:56;17.10;99.90